Time;durP1;ratioP1;P1;durP2;ratioP2;P2;SDS_P1;SDS_P2;PMS_P1;PMS_P2;Temp;Humidity;BMP_temperature;BMP_pressure;BME280_temperature;BME280_humidity;BME280_pressure;Samples;Min_cycle;Max_cycle;Signal;HPM_P1;HPM_P2
2021/12/25 00:00:52;;;;;;;3.08;1.20;;;-0.60;99.90;;;;;;4895199;29;20076;-76
2021/12/25 00:03:18;;;;;;;2.30;1.13;;;-0.60;99.90;;;;;;4877522;29;20505;-77
2021/12/25 00:05:49;;;;;;;3.08;1.00;;;-0.60;99.90;;;;;;4879067;29;20036;-77
2021/12/25 00:08:15;;;;;;;1.92;1.00;;;-0.70;99.90;;;;;;4880831;29;20045;-76
2021/12/25 00:10:40;;;;;;;;;;;-0.70;99.90;;;;;;4880513;29;20036;-76
2021/12/25 00:13:06;;;;;;;7.45;1.30;;;-0.60;99.90;;;;;;4878609;29;19923;-76
2021/12/25 00:15:31;;;;;;;;;;;-0.70;99.90;;;;;;4880855;29;20041;-76
2021/12/25 00:17:57;;;;;;;2.63;0.95;;;-0.70;99.90;;;;;;4878359;29;19927;-75
2021/12/25 00:20:23;;;;;;;;;;;-0.70;99.90;;;;;;4894743;29;20504;-77
2021/12/25 00:22:48;;;;;;;4.93;0.98;;;-0.70;99.90;;;;;;4880785;29;19923;-77
2021/12/25 00:25:14;;;;;;;;;;;-0.80;99.90;;;;;;4876755;29;20691;-76
2021/12/25 00:30:40;;;;;;;3.20;1.20;;;-0.80;99.90;;;;;;4878587;29;20048;-76
2021/12/25 00:33:17;;;;;;;2.38;1.20;;;-0.80;99.90;;;;;;4875622;29;20056;-77
2021/12/25 00:35:43;;;;;;;4.63;1.65;;;-0.80;99.90;;;;;;4878103;29;20056;-77
2021/12/25 00:38:11;;;;;;;;;;;-0.80;99.90;;;;;;4877582;29;20095;-76
2021/12/25 00:40:37;;;;;;;4.03;1.25;;;-0.80;99.90;;;;;;4880436;29;20359;-76
2021/12/25 00:43:02;;;;;;;;;;;-0.90;99.90;;;;;;4880771;29;20106;-76
2021/12/25 00:45:28;;;;;;;4.68;1.30;;;-0.90;99.90;;;;;;4879797;29;19943;-76
2021/12/25 00:48:00;;;;;;;;;;;-0.90;99.90;;;;;;4880563;29;20092;-76
2021/12/25 00:50:25;;;;;;;3.92;1.58;;;-1.00;99.90;;;;;;4879952;29;20271;-76
2021/12/25 00:53:14;;;;;;;3.50;1.15;;;-1.00;99.90;;;;;;4896243;29;20075;-76
2021/12/25 00:55:52;;;;;;;5.22;1.83;;;-0.10;99.90;;;;;;4883355;29;20085;-76
2021/12/25 00:58:18;;;;;;;5.10;1.17;;;-1.20;99.90;;;;;;4879762;29;20048;-76
2021/12/25 01:00:44;;;;;;;;;;;-1.10;99.90;;;;;;4879965;29;20075;-77
2021/12/25 01:03:18;;;;;;;2.50;1.00;;;-1.10;99.90;;;;;;4879492;29;19927;-76
2021/12/25 01:05:53;;;;;;;4.72;1.20;;;-1.20;99.90;;;;;;4879735;29;20132;-76
2021/12/25 01:08:18;;;;;;;;;;;-1.20;99.90;;;;;;4880477;29;20128;-76
2021/12/25 01:10:47;;;;;;;5.20;1.20;;;-1.40;99.90;;;;;;4879787;29;20367;-76
2021/12/25 01:13:21;;;;;;;3.00;1.02;;;-1.30;99.90;;;;;;4878915;29;20528;-76
2021/12/25 01:16:23;;;;;;;4.50;1.30;;;-1.30;99.90;;;;;;4876534;29;20373;-76
2021/12/25 01:24:20;;;;;;;4.47;1.23;;;-1.40;99.90;;;;;;4896558;29;20493;-76
2021/12/25 01:48:26;;;;;;;6.55;1.05;;;-1.60;99.90;;;;;;4881857;29;20048;-76
2021/12/25 01:50:54;;;;;;;2.63;1.30;;;-1.60;99.90;;;;;;4883433;29;20036;-76
2021/12/25 01:53:20;;;;;;;;;;;-1.70;99.90;;;;;;4883941;29;20161;-76
2021/12/25 01:55:49;;;;;;;4.93;1.23;;;-1.70;99.90;;;;;;4882629;29;20346;-76
2021/12/25 01:58:30;;;;;;;3.60;1.08;;;-1.70;99.90;;;;;;4886987;29;20085;-75
2021/12/25 02:00:58;;;;;;;2.33;0.90;;;-1.70;99.90;;;;;;4883569;29;20055;-76
2021/12/25 02:03:27;;;;;;;3.08;1.00;;;-1.70;99.90;;;;;;4883032;29;20155;-76
2021/12/25 02:05:54;;;;;;;4.43;1.20;;;-1.40;99.90;;;;;;4883380;29;20050;-77
2021/12/25 02:08:20;;;;;;;6.07;1.35;;;-1.70;99.90;;;;;;4886384;29;20101;-76
2021/12/25 02:10:48;;;;;;;2.47;1.02;;;-1.80;99.90;;;;;;4883616;29;20480;-76
2021/12/25 02:13:17;;;;;;;9.15;1.50;;;-1.20;99.90;;;;;;4879655;29;20052;-76
2021/12/25 02:15:47;;;;;;;4.10;1.40;;;-1.80;99.90;;;;;;4882744;29;20044;-76
2021/12/25 02:20:54;;;;;;;4.70;1.10;;;-1.90;99.90;;;;;;4883027;29;20052;-77
2021/12/25 02:23:22;;;;;;;5.10;1.20;;;-1.90;99.90;;;;;;4883538;29;20127;-77
2021/12/25 02:25:54;;;;;;;3.17;1.10;;;-2.00;99.90;;;;;;4900573;29;20059;-77
2021/12/25 02:28:21;;;;;;;5.13;1.08;;;-2.00;99.90;;;;;;4883239;29;20493;-75
2021/12/25 02:30:51;;;;;;;3.60;1.20;;;-2.00;99.90;;;;;;4882395;29;20087;-75
2021/12/25 02:33:43;;;;;;;4.10;1.50;;;-1.60;99.90;;;;;;4883048;29;20100;-75
2021/12/25 02:36:10;;;;;;;5.20;1.23;;;-1.60;99.90;;;;;;4966948;23;20053;-76
2021/12/25 02:38:37;;;;;;;4.05;1.20;;;-2.10;99.90;;;;;;4893283;29;20056;-76
2021/12/25 02:41:04;;;;;;;3.15;1.10;;;-2.10;99.90;;;;;;4893655;29;20041;-76
2021/12/25 02:43:30;;;;;;;4.95;1.10;;;-2.10;99.90;;;;;;4892504;29;20059;-75
2021/12/25 02:45:56;;;;;;;3.17;1.23;;;-2.20;99.90;;;;;;4892877;29;20129;-75
2021/12/25 02:48:22;;;;;;;4.43;0.95;;;-2.20;99.90;;;;;;4893409;29;20047;-76
2021/12/25 02:50:49;;;;;;;2.30;1.00;;;-2.20;99.90;;;;;;4890511;29;20573;-76
2021/12/25 02:53:15;;;;;;;2.72;1.00;;;-2.20;99.90;;;;;;4891295;29;20063;-76
2021/12/25 02:55:43;;;;;;;5.25;1.00;;;-2.20;99.90;;;;;;4893431;29;20399;-76
2021/12/25 02:58:10;;;;;;;3.10;0.95;;;-2.30;99.90;;;;;;4890073;29;20520;-76
2021/12/25 03:00:37;;;;;;;3.10;1.45;;;-2.30;99.90;;;;;;4894214;29;20040;-76
2021/12/25 03:03:07;;;;;;;2.28;0.90;;;-2.40;99.90;;;;;;4892434;29;20120;-76
2021/12/25 03:17:39;;;;;;;3.30;1.17;;;-2.50;99.90;;;;;;4859733;29;20454;-76
2021/12/25 03:23:34;;;;;;;1.65;0.90;;;-2.60;99.90;;;;;;4861333;29;20158;-76
2021/12/25 03:41:19;;;;;;;1.65;0.90;;;-3.80;99.90;;;;;;4858815;29;20049;-76
2021/12/25 03:44:01;;;;;;;2.85;0.80;;;-2.00;99.90;;;;;;5028854;23;20521;-76
2021/12/25 03:46:29;;;;;;;1.60;0.82;;;-2.70;99.90;;;;;;4882585;29;20052;-76
2021/12/25 03:49:03;;;;;;;1.40;0.73;;;-2.70;99.90;;;;;;4882273;29;20104;-76
2021/12/25 04:17:43;;;;;;;3.75;1.08;;;-3.40;99.90;;;;;;4838409;29;20106;-76
2021/12/25 04:28:08;;;;;;;;;;;-2.90;99.90;;;;;;4817760;29;20062;-76
2021/12/25 05:43:14;;;;;;;1.20;0.70;;;-4.70;99.90;;;;;;4912745;29;20035;-75
2021/12/25 05:53:11;;;;;;;1.73;0.70;;;-3.80;99.90;;;;;;4934926;29;20059;-76
2021/12/25 06:06:30;;;;;;;1.98;0.90;;;-3.00;99.90;;;;;;5588372;23;20084;-76
2021/12/25 06:08:56;;;;;;;;;;;-3.70;99.90;;;;;;4898512;29;20040;-76
2021/12/25 06:11:30;;;;;;;2.40;0.80;;;-3.70;99.90;;;;;;4898874;29;19923;-75
2021/12/25 06:32:46;;;;;;;1.35;0.90;;;-3.70;99.90;;;;;;5189575;23;20076;-75
2021/12/25 07:03:23;;;;;;;3.60;0.90;;;-6.10;99.90;;;;;;4915339;29;20032;-75
2021/12/25 07:25:38;;;;;;;1.58;0.90;;;-4.50;99.90;;;;;;4888255;29;20075;-76
2021/12/25 07:36:23;;;;;;;2.00;0.88;;;-3.70;99.90;;;;;;5020138;23;20154;-76
2021/12/25 07:38:53;;;;;;;2.70;0.82;;;-4.80;99.90;;;;;;4936244;29;20103;-76
2021/12/25 07:41:19;;;;;;;1.55;0.90;;;-4.90;99.90;;;;;;4936050;29;20048;-76
2021/12/25 07:43:45;;;;;;;3.95;1.50;;;-4.00;99.90;;;;;;4919599;29;20070;-76
2021/12/25 07:46:10;;;;;;;;;;;-4.00;99.90;;;;;;4919491;29;20090;-76
2021/12/25 07:48:36;;;;;;;2.78;1.10;;;-3.90;99.90;;;;;;4920283;29;19922;-76
2021/12/25 07:51:05;;;;;;;4.85;1.63;;;-3.90;99.90;;;;;;4919256;29;20043;-76
2021/12/25 07:53:33;;;;;;;17.83;8.07;;;-4.40;99.90;;;;;;4918530;29;20051;-76
2021/12/25 07:55:59;;;;;;;4.20;1.70;;;-3.90;99.90;;;;;;4919999;29;20074;-76
2021/12/25 07:58:25;;;;;;;3.08;1.55;;;-3.90;99.90;;;;;;4919595;29;20479;-76
2021/12/25 08:04:53;;;;;;;2.20;1.25;;;-3.90;99.90;;;;;;4937007;29;20038;-76
2021/12/25 08:07:18;;;;;;;4.10;1.30;;;-3.80;99.90;;;;;;4919168;29;20055;-77
2021/12/25 08:09:51;;;;;;;4.07;2.20;;;-4.00;99.90;;;;;;4918556;29;20123;-76
2021/12/25 08:12:17;;;;;;;2.35;1.20;;;-4.60;99.90;;;;;;4917090;29;20102;-76
2021/12/25 08:14:43;;;;;;;2.53;1.02;;;;;;;;;;4916305;29;20079;-76
2021/12/25 08:17:09;;;;;;;;;;;-3.80;99.90;;;;;;4918275;29;20178;-76
2021/12/25 08:19:34;;;;;;;2.60;1.38;;;-3.80;99.90;;;;;;4933755;29;20385;-76
2021/12/25 08:22:00;;;;;;;;;;;-3.80;99.90;;;;;;4918680;29;20035;-76
2021/12/25 08:24:26;;;;;;;2.60;1.20;;;-3.80;99.90;;;;;;4917450;29;20022;-76
2021/12/25 08:26:51;;;;;;;;;;;-3.60;99.90;;;;;;4918608;29;20047;-76
2021/12/25 08:29:17;;;;;;;1.63;0.90;;;-3.70;99.90;;;;;;4916342;29;19929;-75
2021/12/25 08:31:42;;;;;;;;;;;-3.70;99.90;;;;;;4919053;29;20039;-76
2021/12/25 08:34:09;;;;;;;2.60;1.00;;;-3.70;99.90;;;;;;4933949;29;19923;-76
2021/12/25 08:36:35;;;;;;;2.17;1.20;;;-3.70;99.90;;;;;;4916974;29;20059;-76
2021/12/25 08:39:03;;;;;;;2.92;1.20;;;-3.40;99.90;;;;;;4918248;29;20051;-76
2021/12/25 08:41:31;;;;;;;8.23;1.30;;;-2.60;99.90;;;;;;4933870;29;20051;-77
2021/12/25 08:44:03;;;;;;;1.70;0.93;;;-1.70;99.90;;;;;;4917876;29;20551;-77
2021/12/25 08:46:54;;;;;;;3.35;1.00;;;-1.40;99.90;;;;;;4933178;29;20079;-76
2021/12/25 08:49:24;;;;;;;1.95;1.10;;;-0.90;99.90;;;;;;4928403;29;20547;-78
2021/12/25 08:51:51;;;;;;;3.67;1.00;;;-0.50;99.90;;;;;;4918145;29;20043;-78
2021/12/25 08:54:17;;;;;;;1.60;1.02;;;-0.50;99.90;;;;;;4921379;29;20126;-78
2021/12/25 08:56:43;;;;;;;;;;;-0.60;99.90;;;;;;4933889;29;20115;-78
2021/12/25 08:59:09;;;;;;;2.50;1.00;;;-0.50;99.90;;;;;;4918087;29;20390;-77
2021/12/25 09:01:46;;;;;;;;;;;;;;;;;;;;;
2021/12/25 09:23:44;;;;;;;2.20;0.95;;;5.10;98.90;;;;;;5342125;23;20048;-83
2021/12/25 09:26:50;;;;;;;3.17;0.90;;;5.40;96.20;;;;;;4908202;29;20448;-89
2021/12/25 09:29:28;;;;;;;2.70;1.00;;;5.30;98.00;;;;;;4907814;29;20127;-85
2021/12/25 09:35:25;;;;;;;2.50;0.90;;;6.00;94.30;;;;;;4906412;29;20104;-81
2021/12/25 09:37:56;;;;;;;2.95;1.00;;;5.70;94.40;;;;;;4916009;23;20086;-82
2021/12/25 09:40:47;;;;;;;2.60;1.00;;;6.40;92.50;;;;;;4932353;29;20515;-86
2021/12/25 09:43:22;;;;;;;2.05;1.10;;;6.10;90.20;;;;;;4931294;29;20095;-88
2021/12/25 09:45:51;;;;;;;2.95;1.30;;;6.20;94.90;;;;;;4932809;29;20051;-85
2021/12/25 09:48:17;;;;;;;2.40;1.00;;;6.40;91.30;;;;;;4917203;29;20058;-85
2021/12/25 09:50:42;;;;;;;;;;;6.90;92.30;;;;;;4918363;29;20036;-80
2021/12/25 09:56:04;;;;;;;2.70;1.10;;;6.90;84.10;;;;;;4868986;29;20569;-81
2021/12/25 09:58:35;;;;;;;;;;;7.00;87.70;;;;;;4868240;29;20056;-82
2021/12/25 10:01:01;;;;;;;3.72;0.95;;;6.60;82.90;;;;;;4898607;23;20033;-77
2021/12/25 10:03:43;;;;;;;;;;;7.20;88.00;;;;;;4915134;29;20135;-75
2021/12/25 10:06:09;;;;;;;3.78;1.10;;;7.70;84.30;;;;;;4916989;29;20287;-81
2021/12/25 10:08:37;;;;;;;;;;;8.30;79.00;;;;;;4920580;29;20035;-79
2021/12/25 10:11:04;;;;;;;2.70;1.00;;;8.40;75.40;;;;;;4923464;29;19925;-81
2021/12/25 10:13:35;;;;;;;3.13;0.98;;;8.90;83.10;;;;;;4920371;29;20048;-77
2021/12/25 10:16:25;;;;;;;3.30;1.00;;;9.00;76.30;;;;;;4920660;29;20131;-77
2021/12/25 10:18:53;;;;;;;2.30;0.88;;;9.10;64.40;;;;;;4921919;29;20051;-77
2021/12/25 10:21:27;;;;;;;2.13;0.90;;;8.30;73.70;;;;;;4919751;29;20060;-78
2021/12/25 10:24:17;;;;;;;2.50;1.00;;;9.00;81.20;;;;;;4937885;29;20137;-80
2021/12/25 10:27:10;;;;;;;1.90;0.98;;;9.80;70.70;;;;;;4915016;29;20044;-87
2021/12/25 10:30:06;;;;;;;3.40;0.90;;;9.30;68.50;;;;;;4917216;29;20051;-83
2021/12/25 10:32:54;;;;;;;2.83;0.80;;;9.50;71.50;;;;;;4917601;29;20077;-87
2021/12/25 10:35:39;;;;;;;2.38;1.00;;;9.90;64.80;;;;;;4920535;29;20428;-79
2021/12/25 10:38:11;;;;;;;2.15;0.90;;;10.00;68.30;;;;;;4918339;29;20043;-78
2021/12/25 10:41:22;;;;;;;2.03;0.90;;;11.00;67.00;;;;;;4919893;29;20493;-80
2021/12/25 10:43:53;;;;;;;2.35;0.85;;;10.60;67.30;;;;;;4920530;29;20043;-82
2021/12/25 10:46:27;;;;;;;2.28;0.93;;;11.00;72.50;;;;;;4936558;29;20373;-87
2021/12/25 10:48:59;;;;;;;2.13;1.00;;;11.20;59.80;;;;;;4918120;29;20050;-83
2021/12/25 10:51:28;;;;;;;2.78;1.30;;;10.90;55.30;;;;;;4936465;29;20391;-84
2021/12/25 10:53:55;;;;;;;1.92;0.90;;;11.00;56.90;;;;;;4919361;29;20044;-84
2021/12/25 10:56:22;;;;;;;1.83;0.80;;;11.30;68.30;;;;;;4919550;29;20048;-91
2021/12/25 10:58:47;;;;;;;2.65;0.90;;;10.90;59.60;;;;;;4919999;29;20048;-82
2021/12/25 11:01:14;;;;;;;;;;;11.30;66.10;;;;;;4937269;29;20117;-82
2021/12/25 11:03:44;;;;;;;2.22;1.02;;;10.50;56.20;;;;;;4921805;29;19978;-80
2021/12/25 11:06:16;;;;;;;2.67;0.90;;;10.60;64.90;;;;;;4919032;29;20035;-79
2021/12/25 11:08:42;;;;;;;2.30;1.02;;;11.00;56.00;;;;;;4919264;29;20047;-80
2021/12/25 11:11:15;;;;;;;3.00;0.90;;;10.50;55.90;;;;;;4918300;29;20399;-80
2021/12/25 11:13:51;;;;;;;1.70;0.90;;;11.00;64.30;;;;;;4919270;29;20047;-80
2021/12/25 11:16:26;;;;;;;3.45;1.08;;;11.60;61.60;;;;;;4932553;29;20058;-79
2021/12/25 11:19:09;;;;;;;2.78;1.00;;;11.50;56.40;;;;;;4933274;29;20134;-79
2021/12/25 11:21:44;;;;;;;2.45;1.00;;;11.30;52.60;;;;;;4919578;29;20047;-88
2021/12/25 11:24:18;;;;;;;3.85;0.90;;;11.10;50.50;;;;;;4918607;29;20040;-82
2021/12/25 11:26:49;;;;;;;2.58;0.75;;;11.40;56.10;;;;;;4919764;29;20044;-82
2021/12/25 11:29:19;;;;;;;2.63;0.90;;;11.60;51.90;;;;;;4931618;29;20122;-87
2021/12/25 11:31:49;;;;;;;2.38;1.00;;;11.60;53.50;;;;;;4914910;29;20067;-84
2021/12/25 11:34:16;;;;;;;2.35;0.93;;;11.70;57.10;;;;;;4915881;29;20410;-83
2021/12/25 11:36:48;;;;;;;1.95;0.80;;;11.60;56.10;;;;;;4919718;29;20039;-88
2021/12/25 11:39:17;;;;;;;3.63;1.00;;;12.50;54.20;;;;;;4914757;29;20067;-76
2021/12/25 12:39:22;;;;;;;4.80;2.15;;;9.00;55.80;;;;;;5724040;23;20067;-80
2021/12/25 12:45:28;;;;;;;11.63;7.00;;;9.20;57.30;;;;;;5090710;23;20135;-80
2021/12/25 12:55:10;;;;;;;3.15;1.20;;;8.80;57.90;;;;;;4894046;29;20056;-80
2021/12/25 12:57:45;;;;;;;3.75;1.40;;;8.70;58.80;;;;;;4873317;29;20051;-82
2021/12/25 13:28:14;;;;;;;4.00;1.10;;;6.50;72.60;;;;;;4102827;23;20403;-77
2021/12/25 13:31:07;;;;;;;10.73;5.45;;;6.10;73.60;;;;;;4902897;29;20044;-76
2021/12/25 13:34:23;;;;;;;;;;;;;;;;;;;;;
2021/12/25 13:37:04;;;;;;;8.73;5.25;;;4.90;81.60;;;;;;4895680;29;20522;-75
2021/12/25 13:39:51;;;;;;;6.97;4.22;;;3.70;83.30;;;;;;4907534;29;20060;-74
2021/12/25 13:42:22;;;;;;;8.07;3.95;;;4.90;90.00;;;;;;4897784;29;20063;-75
2021/12/25 13:45:02;;;;;;;7.72;4.53;;;3.10;90.70;;;;;;4912301;29;20040;-75
2021/12/25 13:48:21;;;;;;;4.30;2.33;;;2.70;92.40;;;;;;4903515;29;20118;-77
2021/12/25 13:51:02;;;;;;;4.57;2.15;;;1.80;94.30;;;;;;4870428;29;20056;-77
2021/12/25 13:53:29;;;;;;;12.50;6.35;;;1.50;96.10;;;;;;4911572;29;20062;-76
2021/12/25 13:55:55;;;;;;;5.72;2.97;;;1.00;98.20;;;;;;4910051;29;20044;-76
2021/12/25 13:58:26;;;;;;;;;;;0.70;99.00;;;;;;4930559;29;20055;-75
2021/12/25 14:00:51;;;;;;;3.30;2.00;;;2.50;99.90;;;;;;4926055;29;19927;-76
2021/12/25 14:03:19;;;;;;;;;;;0.60;99.90;;;;;;4910303;29;20044;-76
2021/12/25 14:05:47;;;;;;;;;;;0.50;99.90;;;;;;4912978;29;19926;-76
2021/12/25 14:08:18;;;;;;;5.45;3.03;;;1.30;99.90;;;;;;4927156;29;19978;-76
2021/12/25 14:10:44;;;;;;;3.05;1.65;;;0.50;99.90;;;;;;4912623;29;20047;-76
2021/12/25 14:13:17;;;;;;;;;;;0.10;99.90;;;;;;4928269;29;20058;-75
2021/12/25 14:15:54;;;;;;;4.45;1.88;;;0.10;99.90;;;;;;4929803;29;19938;-76
2021/12/25 14:18:22;;;;;;;4.22;1.90;;;0.20;99.90;;;;;;4926868;29;20052;-76
2021/12/25 14:20:51;;;;;;;6.68;4.00;;;-0.10;99.90;;;;;;4912433;29;20797;-76
2021/12/25 14:23:21;;;;;;;6.30;2.17;;;-0.20;99.90;;;;;;4912789;29;20059;-75
2021/12/25 14:25:58;;;;;;;2.92;1.52;;;-0.90;99.90;;;;;;4905930;29;20102;-75
2021/12/25 14:28:30;;;;;;;5.30;1.75;;;-0.40;99.90;;;;;;4910390;29;20082;-75
2021/12/25 14:31:14;;;;;;;4.53;1.70;;;-0.60;99.90;;;;;;4908701;29;20063;-76
2021/12/25 14:34:04;;;;;;;4.00;2.17;;;-0.70;99.90;;;;;;4909190;29;20400;-76
2021/12/25 14:36:38;;;;;;;4.10;2.00;;;-0.80;99.90;;;;;;4910154;29;20047;-75
2021/12/25 14:39:05;;;;;;;10.15;7.30;;;-0.90;99.90;;;;;;4911647;29;20051;-76
2021/12/25 14:41:36;;;;;;;5.00;3.00;;;-0.90;99.90;;;;;;4908874;29;20048;-76
2021/12/25 14:44:18;;;;;;;4.65;1.85;;;1.60;99.90;;;;;;4910382;29;20112;-75
2021/12/25 14:46:46;;;;;;;7.47;3.80;;;-1.00;99.90;;;;;;4905217;29;20062;-75
2021/12/25 14:49:11;;;;;;;46.33;18.77;;;-1.10;99.90;;;;;;4928591;29;20484;-75
2021/12/25 14:51:37;;;;;;;;;;;-1.10;99.90;;;;;;4908632;29;20036;-75
2021/12/25 14:54:05;;;;;;;13.35;8.70;;;-1.30;99.90;;;;;;4928005;29;19970;-75
2021/12/25 14:56:38;;;;;;;10.25;4.57;;;-1.30;99.90;;;;;;4908713;29;20150;-75
2021/12/25 14:59:15;;;;;;;4.63;2.63;;;-1.40;99.90;;;;;;4929122;29;20065;-76
2021/12/25 15:01:44;;;;;;;4.75;2.80;;;-1.50;99.90;;;;;;4911930;29;20813;-76
2021/12/25 15:04:28;;;;;;;3.50;1.88;;;-1.50;99.90;;;;;;4908313;29;20047;-76
2021/12/25 15:07:21;;;;;;;3.10;1.60;;;-1.60;99.90;;;;;;4908772;29;20131;-76
2021/12/25 15:09:54;;;;;;;4.05;2.03;;;-1.70;99.90;;;;;;4909498;29;20047;-75
2021/12/25 15:12:27;;;;;;;5.97;3.13;;;-1.70;99.90;;;;;;4908520;29;20456;-75
2021/12/25 15:15:02;;;;;;;3.75;2.25;;;-1.70;99.90;;;;;;4929366;29;20086;-76
2021/12/25 15:17:30;;;;;;;3.72;1.83;;;-1.80;99.90;;;;;;4909930;29;20099;-76
2021/12/25 15:20:09;;;;;;;4.43;1.92;;;-1.80;99.90;;;;;;4923844;29;20060;-75
2021/12/25 15:22:37;;;;;;;6.03;1.85;;;-1.90;99.90;;;;;;4925317;29;20055;-75
2021/12/25 15:25:09;;;;;;;3.25;1.60;;;-2.00;99.90;;;;;;4911446;29;20051;-75
2021/12/25 15:27:41;;;;;;;5.53;1.73;;;-2.00;99.90;;;;;;4904489;29;20048;-75
2021/12/25 15:30:17;;;;;;;3.97;1.85;;;-2.10;99.90;;;;;;4920633;29;20040;-75
2021/12/25 15:33:13;;;;;;;3.03;1.48;;;-2.10;99.90;;;;;;4906797;29;20441;-76
2021/12/25 15:35:47;;;;;;;4.13;2.10;;;-2.20;99.90;;;;;;4896960;29;20127;-75
2021/12/25 15:38:29;;;;;;;2.90;1.80;;;-2.20;99.90;;;;;;4925587;29;20054;-75
2021/12/25 15:40:55;;;;;;;4.13;1.55;;;-2.30;99.90;;;;;;4925840;29;20086;-76
2021/12/25 15:43:21;;;;;;;;;;;-2.30;99.90;;;;;;4927501;29;20059;-75
2021/12/25 15:45:47;;;;;;;2.85;1.23;;;-2.40;99.90;;;;;;4926496;29;19970;-75
2021/12/25 15:48:12;;;;;;;;;;;-2.40;99.90;;;;;;4926316;29;20040;-75
2021/12/25 15:50:38;;;;;;;4.60;1.38;;;-2.50;99.90;;;;;;4927258;29;19969;-75
2021/12/25 15:53:04;;;;;;;;;;;-2.50;99.90;;;;;;4911488;29;20119;-75
2021/12/25 15:55:33;;;;;;;5.68;1.63;;;-2.50;99.90;;;;;;4924504;29;19930;-75
2021/12/25 15:58:07;;;;;;;3.47;1.30;;;-2.60;99.90;;;;;;4911220;29;20117;-75
2021/12/25 16:00:36;;;;;;;2.78;1.20;;;-2.60;99.90;;;;;;4904198;29;20083;-75
2021/12/25 16:03:02;;;;;;;5.10;2.50;;;-2.60;99.90;;;;;;4927585;29;20046;-75
2021/12/25 16:05:28;;;;;;;4.25;1.98;;;-2.70;99.90;;;;;;4925987;29;20044;-75
2021/12/25 16:07:54;;;;;;;;;;;-2.80;99.90;;;;;;4928364;29;20066;-75
2021/12/25 16:10:20;;;;;;;2.58;1.40;;;-2.80;99.90;;;;;;4925070;29;20009;-75
2021/12/25 16:12:45;;;;;;;;;;;-2.80;99.90;;;;;;4909429;29;20143;-75
2021/12/25 16:15:11;;;;;;;4.78;2.08;;;-2.90;99.90;;;;;;4907371;29;19923;-75
2021/12/25 16:17:37;;;;;;;;;;;-3.00;99.90;;;;;;4910174;29;20042;-75
2021/12/25 16:20:03;;;;;;;4.70;1.80;;;-3.00;99.90;;;;;;4907396;29;19923;-75
2021/12/25 16:22:29;;;;;;;3.72;1.83;;;-3.00;99.90;;;;;;4926967;29;20044;-75
2021/12/25 16:24:54;;;;;;;;;;;-3.10;99.90;;;;;;4911736;29;20046;-75
2021/12/25 16:27:20;;;;;;;4.25;2.05;;;-3.10;99.90;;;;;;4906648;29;20499;-75
2021/12/25 16:29:46;;;;;;;;;;;-3.10;99.90;;;;;;4910062;29;20094;-76
2021/12/25 16:32:11;;;;;;;5.78;2.83;;;-3.10;99.90;;;;;;4909626;29;19930;-75
2021/12/25 16:34:37;;;;;;;;;;;-3.20;99.90;;;;;;4908888;29;20047;-75
2021/12/25 16:37:05;;;;;;;7.30;2.10;;;-3.20;99.90;;;;;;4925318;29;19966;-75
2021/12/25 16:39:31;;;;;;;5.18;1.88;;;-3.30;99.90;;;;;;4926560;29;20106;-75
2021/12/25 16:41:58;;;;;;;;;;;-3.30;99.90;;;;;;4924100;29;20032;-75
2021/12/25 16:44:24;;;;;;;4.43;2.03;;;-3.30;99.90;;;;;;4910785;29;19930;-76
2021/12/25 16:46:51;;;;;;;;;;;-3.30;99.90;;;;;;4907408;29;20047;-75
2021/12/25 16:49:18;;;;;;;5.07;2.10;;;-3.40;99.90;;;;;;4906860;29;19934;-75
2021/12/25 16:51:44;;;;;;;3.85;1.73;;;-3.40;99.90;;;;;;4926397;29;20710;-75
2021/12/25 16:54:11;;;;;;;;;;;-3.40;99.90;;;;;;4910861;29;20052;-76
2021/12/25 16:56:37;;;;;;;5.40;2.00;;;-3.40;99.90;;;;;;4925309;29;19929;-75
2021/12/25 16:59:03;;;;;;;5.07;2.15;;;-3.40;99.90;;;;;;4925378;29;20048;-75
2021/12/25 17:01:31;;;;;;;;;;;-3.40;99.90;;;;;;4928914;29;20055;-75
2021/12/25 17:04:02;;;;;;;4.10;2.20;;;-3.40;99.90;;;;;;4906283;29;20362;-75
2021/12/25 17:06:31;;;;;;;4.88;2.13;;;-3.50;99.90;;;;;;4908046;29;20440;-76
2021/12/25 17:08:57;;;;;;;4.78;2.33;;;-3.50;99.90;;;;;;4909397;29;20074;-76
2021/12/25 17:11:23;;;;;;;;;;;-3.50;99.90;;;;;;4905828;29;20079;-75
2021/12/25 17:13:49;;;;;;;7.88;4.00;;;-3.50;99.90;;;;;;4910382;29;19923;-76
2021/12/25 17:16:14;;;;;;;;;;;-3.50;99.90;;;;;;4922882;29;20452;-75
2021/12/25 17:18:40;;;;;;;5.43;2.47;;;-3.60;99.90;;;;;;4910199;29;19923;-75
2021/12/25 17:21:06;;;;;;;;;;;-3.60;99.90;;;;;;4904874;29;20055;-76
2021/12/25 17:23:32;;;;;;;4.30;2.10;;;-3.60;99.90;;;;;;4911554;29;19970;-75
2021/12/25 17:25:57;;;;;;;;;;;-3.60;99.90;;;;;;4925648;29;20044;-76
2021/12/25 17:28:23;;;;;;;3.10;1.70;;;-3.60;99.90;;;;;;4908387;29;19923;-76
2021/12/25 17:30:50;;;;;;;;;;;-3.70;99.90;;;;;;4905216;29;20067;-75
2021/12/25 17:33:20;;;;;;;5.30;2.03;;;-3.60;99.90;;;;;;4908703;29;19922;-75
2021/12/25 17:35:47;;;;;;;4.30;1.92;;;-3.60;99.90;;;;;;4923930;29;20087;-76
2021/12/25 17:38:16;;;;;;;6.45;2.53;;;-3.70;99.90;;;;;;4912302;29;20082;-75
2021/12/25 17:40:43;;;;;;;4.70;1.90;;;-3.70;99.90;;;;;;4906473;29;20055;-76
2021/12/25 17:43:10;;;;;;;3.65;1.70;;;-3.70;99.90;;;;;;4925970;29;20040;-76
2021/12/25 17:45:38;;;;;;;4.50;1.95;;;-3.60;99.90;;;;;;4908532;29;20094;-76
2021/12/25 17:48:06;;;;;;;4.82;2.17;;;-3.50;99.90;;;;;;4907339;29;20432;-76
2021/12/25 17:50:34;;;;;;;6.55;2.67;;;-3.60;99.90;;;;;;4908634;29;20059;-76
2021/12/25 17:53:00;;;;;;;4.97;2.10;;;-3.60;99.90;;;;;;4904983;29;20404;-76
2021/12/25 17:55:27;;;;;;;6.20;2.22;;;-3.60;99.90;;;;;;4924743;29;20055;-76
2021/12/25 17:57:53;;;;;;;5.60;2.28;;;-3.60;99.90;;;;;;4907484;29;20050;-76
2021/12/25 18:00:26;;;;;;;6.15;2.10;;;-3.50;99.90;;;;;;4924141;29;20129;-76
2021/12/25 18:02:52;;;;;;;4.85;2.05;;;-3.40;99.90;;;;;;4924787;29;20086;-76
2021/12/25 18:05:18;;;;;;;;;;;-3.50;99.90;;;;;;4924141;29;20083;-76
2021/12/25 18:07:44;;;;;;;6.38;2.20;;;-3.50;99.90;;;;;;4906469;29;20005;-76
2021/12/25 18:10:11;;;;;;;;;;;-3.50;99.90;;;;;;4909430;29;20194;-75
2021/12/25 18:12:37;;;;;;;3.78;1.70;;;-3.40;99.90;;;;;;4905499;29;19923;-75
2021/12/25 18:15:08;;;;;;;;;;;-3.40;99.90;;;;;;4909679;29;20118;-76
2021/12/25 18:17:34;;;;;;;5.32;2.00;;;-3.40;99.90;;;;;;4908772;29;20425;-76
2021/12/25 18:20:00;;;;;;;3.42;1.73;;;-3.40;99.90;;;;;;4905885;29;20044;-76
2021/12/25 18:22:26;;;;;;;3.67;2.03;;;-3.40;99.90;;;;;;4908200;29;20083;-76
2021/12/25 18:24:52;;;;;;;;;;;-3.40;99.90;;;;;;4922261;29;20580;-76
2021/12/25 18:27:19;;;;;;;2.70;1.42;;;-3.30;99.90;;;;;;4912091;29;20442;-76
2021/12/25 18:29:47;;;;;;;4.97;2.17;;;-3.40;99.90;;;;;;4910335;29;20131;-76
2021/12/25 18:32:13;;;;;;;4.82;2.00;;;-3.40;99.90;;;;;;4911706;29;20044;-76
2021/12/25 18:34:38;;;;;;;;;;;-3.40;99.90;;;;;;4912851;29;20050;-75
2021/12/25 18:37:04;;;;;;;2.97;1.60;;;-3.40;99.90;;;;;;4929744;29;20296;-77
2021/12/25 18:39:30;;;;;;;;;;;-3.50;99.90;;;;;;4909482;29;20480;-76
2021/12/25 18:41:55;;;;;;;4.93;2.95;;;-3.50;99.90;;;;;;4928331;29;19986;-76
2021/12/25 18:44:21;;;;;;;;;;;-3.60;99.90;;;;;;4910509;29;20452;-75
2021/12/25 18:46:49;;;;;;;4.15;2.00;;;-3.70;99.90;;;;;;4927560;29;20012;-75
2021/12/25 18:49:16;;;;;;;5.40;2.65;;;-3.70;99.90;;;;;;4910309;29;20043;-75
2021/12/25 18:51:41;;;;;;;5.20;2.17;;;-3.70;99.90;;;;;;4913909;29;20364;-75
2021/12/25 18:54:10;;;;;;;;;;;-3.70;99.90;;;;;;4926185;29;20043;-75
2021/12/25 18:56:36;;;;;;;6.75;2.22;;;-3.80;99.90;;;;;;4929632;29;19923;-76
2021/12/25 18:59:04;;;;;;;3.15;2.00;;;-3.80;99.90;;;;;;4912100;29;20048;-75
2021/12/25 19:01:32;;;;;;;5.90;2.20;;;-3.80;99.90;;;;;;4908340;29;20436;-75
2021/12/25 19:04:01;;;;;;;3.75;2.38;;;-3.80;99.90;;;;;;4922586;29;20063;-76
2021/12/25 19:06:30;;;;;;;4.75;2.20;;;-3.90;99.90;;;;;;4915070;29;20400;-76
2021/12/25 19:08:55;;;;;;;5.30;2.58;;;-4.00;99.90;;;;;;4909226;29;20123;-76
2021/12/25 19:11:24;;;;;;;;;;;-3.90;99.90;;;;;;4930744;29;20070;-75
2021/12/25 19:13:49;;;;;;;6.55;2.90;;;-4.00;99.90;;;;;;4910472;29;19933;-76
2021/12/25 19:16:15;;;;;;;;;;;-4.00;99.90;;;;;;4927510;29;20044;-76
2021/12/25 19:18:50;;;;;;;5.35;2.70;;;-4.10;99.90;;;;;;4911028;29;19931;-76
2021/12/25 19:21:16;;;;;;;;;;;-4.10;99.90;;;;;;4926875;29;20381;-76
2021/12/25 19:23:41;;;;;;;4.70;2.30;;;-4.20;99.90;;;;;;4909510;29;19927;-76
2021/12/25 19:26:07;;;;;;;;;;;-4.20;99.90;;;;;;4928058;29;20036;-76
2021/12/25 19:28:34;;;;;;;6.88;2.58;;;-4.20;99.90;;;;;;4909576;29;20010;-75
2021/12/25 19:30:59;;;;;;;7.10;2.80;;;-4.20;99.90;;;;;;4910968;29;20115;-76
2021/12/25 19:33:25;;;;;;;;;;;-4.20;99.90;;;;;;4912428;29;20547;-76
2021/12/25 19:35:51;;;;;;;5.55;2.80;;;-4.20;99.90;;;;;;4909223;29;19927;-76
2021/12/25 19:38:19;;;;;;;;;;;-4.30;99.90;;;;;;4928347;29;20043;-76
2021/12/25 19:40:50;;;;;;;6.00;2.40;;;-4.30;99.90;;;;;;4909487;29;19930;-76
2021/12/25 19:43:16;;;;;;;4.50;2.70;;;-4.30;99.90;;;;;;4912053;29;20067;-76
2021/12/25 19:45:42;;;;;;;;;;;-4.30;99.90;;;;;;4910846;29;20039;-76
2021/12/25 19:48:09;;;;;;;6.45;3.30;;;-4.30;99.90;;;;;;4927478;29;19979;-76
2021/12/25 19:50:47;;;;;;;8.90;2.97;;;-4.40;99.90;;;;;;4910259;29;20044;-76
2021/12/25 19:53:16;;;;;;;6.30;2.90;;;-4.30;99.90;;;;;;4913966;29;21514;-75